Time;durP1;ratioP1;P1;durP2;ratioP2;P2;SDS_P1;SDS_P2;PMS_P1;PMS_P2;Temp;Humidity;BMP_temperature;BMP_pressure;BME280_temperature;BME280_humidity;BME280_pressure;Samples;Min_cycle;Max_cycle;Signal;HPM_P1;HPM_P2
2023/02/21 02:14:45;;;;;;;;;;;;;;;;;;5057741;28;19988;-50
2023/02/21 02:17:11;;;;;;;;;;;;;;;;;;5057807;28;20383;-47
2023/02/21 02:19:37;;;;;;;;;;;;;;;;;;5057303;28;20393;-50
2023/02/21 02:22:03;;;;;;;;;;;;;;;;;;5057375;28;19913;-47
2023/02/21 02:24:29;;;;;;;;;;;;;;;;;;5057882;28;19931;-51
2023/02/21 02:26:55;;;;;;;;;;;;;;;;;;5057975;28;20399;-50
2023/02/21 02:29:24;;;;;;;;;;;;;;;;;;5057584;28;20292;-48
2023/02/21 02:31:50;;;;;;;;;;;;;;;;;;5057728;28;19909;-50
2023/02/21 02:34:16;;;;;;;;;;;;;;;;;;5057130;28;20387;-49
2023/02/21 02:36:42;;;;;;;;;;;;;;;;;;5057793;28;19909;-51
2023/02/21 02:39:08;;;;;;;;;;;;;;;;;;5056758;28;19923;-49
2023/02/21 02:41:33;;;;;;;;;;;;;;;;;;5057298;28;19944;-48
2023/02/21 02:43:59;;;;;;;;;;;;;;;;;;5057482;28;20372;-50
2023/02/21 02:46:25;;;;;;;;;;;;;;;;;;5057736;28;19920;-50
2023/02/21 02:48:51;;;;;;;;;;;;;;;;;;5057495;28;19909;-51
2023/02/21 02:51:17;;;;;;;;;;;;;;;;;;5056974;28;19909;-50
2023/02/21 02:53:43;;;;;;;;;;;;;;;;;;5057121;28;20360;-50
2023/02/21 02:56:09;;;;;;;;;;;;;;;;;;5057861;28;19909;-48
2023/02/21 02:58:36;;;;;;;;;;;;;;;;;;5057440;28;19966;-49
2023/02/21 03:01:02;;;;;;;;;;;;;;;;;;5057989;28;19916;-49
2023/02/21 03:03:30;;;;;;;;;;;;;;;;;;5061146;28;19920;-52
2023/02/21 03:05:56;;;;;;;;;;;;;;;;;;5060526;28;19958;-50
2023/02/21 03:08:22;;;;;;;;;;;;;;;;;;5060986;28;19963;-49
2023/02/21 03:10:48;;;;;;;;;;;;;;;;;;5061041;28;19916;-49
2023/02/21 03:13:14;;;;;;;;;;;;;;;;;;5061067;28;19909;-50
2023/02/21 03:15:40;;;;;;;;;;;;;;;;;;5061347;28;20384;-47
2023/02/21 03:18:06;;;;;;;;;;;;;;;;;;5060605;28;19971;-51
2023/02/21 03:20:32;;;;;;;;;;;;;;;;;;5060813;28;20005;-51
2023/02/21 03:22:58;;;;;;;;;;;;;;;;;;5060752;28;19960;-50
2023/02/21 03:25:24;;;;;;;;;;;;;;;;;;5060995;28;19916;-51
2023/02/21 03:27:49;;;;;;;;;;;;;;;;;;5061032;28;20280;-49
2023/02/21 03:30:15;;;;;;;;;;;;;;;;;;5061069;28;19913;-53
2023/02/21 03:32:41;;;;;;;;;;;;;;;;;;5059323;28;19915;-53
2023/02/21 03:35:07;;;;;;;;;;;;;;;;;;5060606;28;19913;-50
2023/02/21 03:37:33;;;;;;;;;;;;;;;;;;5060752;28;19915;-51
2023/02/21 03:39:59;;;;;;;;;;;;;;;;;;5060281;28;20008;-52
2023/02/21 03:42:25;;;;;;;;;;;;;;;;;;5060354;28;19924;-53
2023/02/21 03:44:51;;;;;;;;;;;;;;;;;;5060634;28;19908;-52
2023/02/21 03:47:17;;;;;;;;;;;;;;;;;;5059787;28;19938;-51
2023/02/21 03:49:43;;;;;;;;;;;;;;;;;;5060207;28;19908;-51
2023/02/21 03:52:11;;;;;;;;;;;;;;;;;;5060376;28;19909;-52
2023/02/21 03:54:37;;;;;;;;;;;;;;;;;;5060184;28;20397;-49
2023/02/21 03:57:03;;;;;;;;;;;;;;;;;;5060491;28;20292;-51
2023/02/21 03:59:29;;;;;;;;;;;;;;;;;;5059620;28;19956;-51
2023/02/21 04:01:55;;;;;;;;;;;;;;;;;;5059934;28;19994;-49
2023/02/21 04:04:21;;;;;;;;;;;;;;;;;;5060581;28;20349;-48
2023/02/21 04:06:47;;;;;;;;;;;;;;;;;;5060268;28;19912;-53
2023/02/21 04:09:13;;;;;;;;;;;;;;;;;;5041902;28;19963;-50
2023/02/21 04:11:39;;;;;;;;;;;;;;;;;;5059969;28;19956;-53
2023/02/21 04:14:05;;;;;;;;;;;;;;;;;;5057437;28;19920;-47
2023/02/21 04:16:31;;;;;;;;;;;;;;;;;;5059674;28;19915;-49
2023/02/21 04:18:57;;;;;;;;;;;;;;;;;;5060028;28;19909;-53
2023/02/21 04:21:23;;;;;;;;;;;;;;;;;;5060312;28;19974;-49
2023/02/21 04:23:49;;;;;;;;;;;;;;;;;;5059814;28;19919;-51
2023/02/21 04:26:15;;;;;;;;;;;;;;;;;;5060053;28;19964;-51
2023/02/21 04:28:41;;;;;;;;;;;;;;;;;;5058061;28;19912;-52
2023/02/21 04:31:07;;;;;;;;;;;;;;;;;;5059497;28;19920;-46
2023/02/21 04:33:33;;;;;;;;;;;;;;;;;;5059746;28;19909;-48
2023/02/21 04:35:59;;;;;;;;;;;;;;;;;;5059701;28;19944;-50
2023/02/21 04:38:25;;;;;;;;;;;;;;;;;;5059499;28;19999;-51
2023/02/21 04:40:51;;;;;;;;;;;;;;;;;;5059436;28;20303;-48
2023/02/21 04:43:17;;;;;;;;;;;;;;;;;;5059212;28;19920;-50
2023/02/21 04:45:43;;;;;;;;;;;;;;;;;;5058887;28;20505;-47
2023/02/21 04:48:08;;;;;;;;;;;;;;;;;;5059337;28;19974;-45
2023/02/21 04:50:34;;;;;;;;;;;;;;;;;;5059196;28;19909;-48
2023/02/21 04:53:00;;;;;;;;;;;;;;;;;;5059479;28;19909;-48
2023/02/21 04:55:26;;;;;;;;;;;;;;;;;;5059343;28;19916;-47
2023/02/21 04:57:52;;;;;;;;;;;;;;;;;;5059563;28;19961;-48
2023/02/21 05:00:18;;;;;;;;;;;;;;;;;;5058430;28;19962;-46
2023/02/21 05:02:44;;;;;;;;;;;;;;;;;;5038380;28;19928;-45
2023/02/21 05:05:10;;;;;;;;;;;;;;;;;;5046393;28;19956;-51
2023/02/21 05:07:36;;;;;;;;;;;;;;;;;;5046721;28;19916;-48
2023/02/21 05:10:04;;;;;;;;;;;;;;;;;;5056326;28;20410;-49
2023/02/21 05:12:30;;;;;;;;;;;;;;;;;;5058863;28;19916;-50
2023/02/21 05:14:56;;;;;;;;;;;;;;;;;;5057921;28;19916;-49
2023/02/21 05:17:22;;;;;;;;;;;;;;;;;;5059016;28;20269;-50
2023/02/21 05:19:48;;;;;;;;;;;;;;;;;;5040756;28;19916;-50
2023/02/21 05:22:19;;;;;;;;;;;;;;;;;;5058801;28;19912;-50
2023/02/21 05:24:46;;;;;;;;;;;;;;;;;;5058824;28;19958;-48
2023/02/21 05:27:14;;;;;;;;;;;;;;;;;;5059158;28;19915;-52
2023/02/21 05:29:40;;;;;;;;;;;;;;;;;;5057683;28;20415;-52
2023/02/21 05:32:06;;;;;;;;;;;;;;;;;;5058617;28;19913;-51
2023/02/21 05:34:32;;;;;;;;;;;;;;;;;;5058802;28;19909;-47
2023/02/21 05:36:58;;;;;;;;;;;;;;;;;;5058541;28;19959;-49
2023/02/21 05:39:24;;;;;;;;;;;;;;;;;;5040272;28;19908;-52
2023/02/21 05:41:49;;;;;;;;;;;;;;;;;;5056816;28;19920;-49
2023/02/21 05:44:15;;;;;;;;;;;;;;;;;;5058030;28;19920;-48
2023/02/21 05:46:41;;;;;;;;;;;;;;;;;;5058411;28;19913;-53
2023/02/21 05:49:07;;;;;;;;;;;;;;;;;;5057964;28;19920;-49
2023/02/21 05:51:33;;;;;;;;;;;;;;;;;;5058336;28;19993;-52
2023/02/21 05:53:59;;;;;;;;;;;;;;;;;;5058239;28;19909;-50
2023/02/21 05:56:25;;;;;;;;;;;;;;;;;;5057999;28;19912;-46
2023/02/21 05:58:51;;;;;;;;;;;;;;;;;;5058204;28;19909;-51
2023/02/21 06:01:17;;;;;;;;;;;;;;;;;;5058359;28;19958;-52
2023/02/21 06:03:43;;;;;;;;;;;;;;;;;;5058244;28;19959;-48
2023/02/21 06:06:11;;;;;;;;;;;;;;;;;;5057680;28;20206;-51
2023/02/21 06:08:37;;;;;;;;;;;;;;;;;;5057830;28;20265;-48
2023/02/21 06:11:03;;;;;;;;;;;;;;;;;;5058230;28;19940;-52
2023/02/21 06:13:29;;;;;;;;;;;;;;;;;;5058021;28;19909;-53
2023/02/21 06:15:55;;;;;;;;;;;;;;;;;;5058305;28;19908;-48
2023/02/21 06:18:21;;;;;;;;;;;;;;;;;;5053914;28;20042;-49
2023/02/21 06:20:47;;;;;;;;;;;;;;;;;;5047231;28;20376;-49
2023/02/21 06:23:13;;;;;;;;;;;;;;;;;;5051355;28;19914;-53
2023/02/21 06:25:39;;;;;;;;;;;;;;;;;;5046325;28;19908;-51
2023/02/21 06:28:05;;;;;;;;;;;;;;;;;;5047735;28;20402;-50
2023/02/21 06:30:31;;;;;;;;;;;;;;;;;;5046701;28;19967;-51
2023/02/21 06:32:57;;;;;;;;;;;;;;;;;;5051578;28;19913;-50
2023/02/21 06:35:23;;;;;;;;;;;;;;;;;;5054269;28;20291;-50
2023/02/21 06:37:49;;;;;;;;;;;;;;;;;;5051060;28;19916;-51
2023/02/21 06:40:15;;;;;;;;;;;;;;;;;;5051433;28;20288;-47
2023/02/21 06:42:41;;;;;;;;;;;;;;;;;;5049639;28;19917;-50
2023/02/21 06:45:07;;;;;;;;;;;;;;;;;;5050865;28;19912;-50
2023/02/21 06:47:33;;;;;;;;;;;;;;;;;;5051928;28;19916;-49
2023/02/21 06:49:59;;;;;;;;;;;;;;;;;;5048666;28;19917;-46
2023/02/21 06:52:25;;;;;;;;;;;;;;;;;;5051179;28;20012;-48
2023/02/21 06:54:51;;;;;;;;;;;;;;;;;;5051460;28;19936;-52
2023/02/21 06:57:17;;;;;;;;;;;;;;;;;;5049576;28;20266;-50
2023/02/21 06:59:43;;;;;;;;;;;;;;;;;;5051090;28;20395;-49
2023/02/21 07:02:09;;;;;;;;;;;;;;;;;;5050947;28;19921;-51
2023/02/21 07:04:35;;;;;;;;;;;;;;;;;;5049621;28;19909;-49
2023/02/21 07:07:01;;;;;;;;;;;;;;;;;;5051076;28;19909;-48
2023/02/21 07:09:27;;;;;;;;;;;;;;;;;;5050584;28;20079;-50
2023/02/21 07:11:53;;;;;;;;;;;;;;;;;;5046690;28;20268;-47
2023/02/21 07:14:19;;;;;;;;;;;;;;;;;;5045815;28;19913;-50
2023/02/21 07:16:45;;;;;;;;;;;;;;;;;;5049407;28;20254;-49
2023/02/21 07:19:14;;;;;;;;;;;;;;;;;;5054962;28;19914;-49
2023/02/21 07:21:41;;;;;;;;;;;;;;;;;;5059354;28;20445;-46
2023/02/21 07:24:07;;;;;;;;;;;;;;;;;;5049234;28;19913;-52
2023/02/21 07:26:33;;;;;;;;;;;;;;;;;;5050513;28;19915;-51
2023/02/21 07:28:59;;;;;;;;;;;;;;;;;;5050645;28;19909;-51
2023/02/21 07:31:25;;;;;;;;;;;;;;;;;;5048701;28;19913;-52
2023/02/21 07:33:51;;;;;;;;;;;;;;;;;;5060514;28;19996;-53
2023/02/21 07:36:17;;;;;;;;;;;;;;;;;;5059274;28;20010;-47
2023/02/21 07:38:43;;;;;;;;;;;;;;;;;;5060574;28;19959;-50
2023/02/21 07:41:09;;;;;;;;;;;;;;;;;;5060573;28;19916;-49
2023/02/21 07:43:35;;;;;;;;;;;;;;;;;;5060187;28;19914;-48
2023/02/21 07:46:01;;;;;;;;;;;;;;;;;;5060413;28;19959;-50
2023/02/21 07:48:27;;;;;;;;;;;;;;;;;;5040836;28;20407;-48
2023/02/21 07:50:53;;;;;;;;;;;;;;;;;;5060589;28;19909;-50
2023/02/21 07:53:19;;;;;;;;;;;;;;;;;;5060246;28;20019;-47
2023/02/21 07:55:45;;;;;;;;;;;;;;;;;;5060035;28;19995;-48
2023/02/21 07:58:11;;;;;;;;;;;;;;;;;;5056910;28;19944;-47
2023/02/21 08:00:37;;;;;;;;;;;;;;;;;;5058784;28;19940;-52
2023/02/21 08:03:03;;;;;;;;;;;;;;;;;;5059854;28;19928;-47
2023/02/21 08:05:29;;;;;;;;;;;;;;;;;;5060096;28;19909;-51
2023/02/21 08:07:55;;;;;;;;;;;;;;;;;;5041885;28;19909;-48
2023/02/21 08:10:21;;;;;;;;;;;;;;;;;;5060062;28;19909;-50
2023/02/21 08:12:47;;;;;;;;;;;;;;;;;;5059820;28;19939;-51
2023/02/21 08:15:13;;;;;;;;;;;;;;;;;;5059998;28;20339;-52
2023/02/21 08:17:39;;;;;;;;;;;;;;;;;;5059934;28;20315;-49
2023/02/21 08:20:06;;;;;;;;;;;;;;;;;;5041779;28;19916;-48
2023/02/21 08:22:32;;;;;;;;;;;;;;;;;;5059003;28;19919;-51
2023/02/21 08:24:58;;;;;;;;;;;;;;;;;;5059690;28;19913;-53
2023/02/21 08:27:23;;;;;;;;;;;;;;;;;;5059347;28;19909;-48
2023/02/21 08:29:49;;;;;;;;;;;;;;;;;;5059608;28;19909;-51
2023/02/21 08:32:15;;;;;;;;;;;;;;;;;;5041555;28;20424;-47
2023/02/21 08:34:41;;;;;;;;;;;;;;;;;;5058884;28;19930;-52
2023/02/21 08:37:16;;;;;;;;;;;;;;;;;;5059415;28;19917;-50
2023/02/21 08:39:41;;;;;;;;;;;;;;;;;;5059544;28;19915;-52
2023/02/21 08:42:07;;;;;;;;;;;;;;;;;;5059618;28;20299;-53
2023/02/21 08:44:33;;;;;;;;;;;;;;;;;;5059761;28;19909;-51
2023/02/21 08:46:59;;;;;;;;;;;;;;;;;;5059396;28;19975;-53
2023/02/21 08:49:25;;;;;;;;;;;;;;;;;;5059165;28;19956;-52
2023/02/21 08:51:53;;;;;;;;;;;;;;;;;;5059153;28;19909;-50
2023/02/21 08:54:19;;;;;;;;;;;;;;;;;;5059202;28;19908;-50
2023/02/21 08:56:47;;;;;;;;;;;;;;;;;;5059190;28;19908;-51
2023/02/21 08:59:13;;;;;;;;;;;;;;;;;;5058800;28;19915;-48
2023/02/21 09:01:39;;;;;;;;;;;;;;;;;;5058580;28;19952;-51
2023/02/21 09:04:05;;;;;;;;;;;;;;;;;;5058637;28;19978;-52
2023/02/21 09:06:31;;;;;;;;;;;;;;;;;;5058887;28;19908;-52
2023/02/21 09:08:57;;;;;;;;;;;;;;;;;;5056172;28;19961;-51
2023/02/21 09:11:23;;;;;;;;;;;;;;;;;;5057827;28;20365;-53
2023/02/21 09:13:49;;;;;;;;;;;;;;;;;;5058798;28;19909;-53
2023/02/21 09:16:15;;;;;;;;;;;;;;;;;;5058596;28;19909;-52
2023/02/21 09:18:41;;;;;;;;;;;;;;;;;;5050221;28;19913;-53
2023/02/21 09:21:07;;;;;;;;;;;;;;;;;;5051403;28;20426;-53
2023/02/21 09:23:33;;;;;;;;;;;;;;;;;;5053461;28;20403;-50
2023/02/21 09:25:59;;;;;;;;;;;;;;;;;;5058400;28;19948;-50
2023/02/21 09:28:25;;;;;;;;;;;;;;;;;;5058835;28;20252;-49
2023/02/21 09:30:51;;;;;;;;;;;;;;;;;;5057787;28;20268;-51
2023/02/21 09:33:17;;;;;;;;;;;;;;;;;;5055338;28;20284;-51
2023/02/21 09:35:43;;;;;;;;;;;;;;;;;;5056600;28;19904;-54
2023/02/21 09:38:09;;;;;;;;;;;;;;;;;;5058014;28;19909;-51
2023/02/21 09:40:34;;;;;;;;;;;;;;;;;;5057101;28;19916;-50
2023/02/21 09:43:00;;;;;;;;;;;;;;;;;;5057506;28;19920;-53
2023/02/21 09:45:27;;;;;;;;;;;;;;;;;;5058160;28;19913;-47
2023/02/21 09:47:53;;;;;;;;;;;;;;;;;;5058233;28;19915;-50
2023/02/21 09:50:19;;;;;;;;;;;;;;;;;;5058096;28;20368;-50
2023/02/21 09:52:45;;;;;;;;;;;;;;;;;;5057895;28;19909;-51
2023/02/21 09:55:11;;;;;;;;;;;;;;;;;;5058227;28;19958;-48
2023/02/21 09:57:37;;;;;;;;;;;;;;;;;;5056567;28;19916;-52
2023/02/21 10:00:05;;;;;;;;;;;;;;;;;;5058118;28;19909;-52
2023/02/21 10:02:31;;;;;;;;;;;;;;;;;;5053110;28;19960;-51
2023/02/21 10:04:57;;;;;;;;;;;;;;;;;;5038219;28;19959;-50
2023/02/21 10:07:23;;;;;;;;;;;;;;;;;;5037992;28;20388;-47
2023/02/21 10:09:49;;;;;;;;;;;;;;;;;;5037871;28;19913;-51
2023/02/21 10:12:15;;;;;;;;;;;;;;;;;;5037554;28;19952;-53
2023/02/21 10:14:42;;;;;;;;;;;;;;;;;;5038065;28;19909;-48
2023/02/21 10:17:08;;;;;;;;;;;;;;;;;;5037879;28;19984;-50
2023/02/21 10:19:34;;;;;;;;;;;;;;;;;;5038018;28;20530;-53
2023/02/21 10:22:00;;;;;;;;;;;;;;;;;;5038113;28;19910;-50
2023/02/21 10:24:25;;;;;;;;;;;;;;;;;;5037967;28;19909;-50
2023/02/21 10:26:51;;;;;;;;;;;;;;;;;;5038277;28;19959;-51
2023/02/21 10:29:17;;;;;;;;;;;;;;;;;;5037933;28;19909;-48
2023/02/21 10:31:44;;;;;;;;;;;;;;;;;;5037765;28;19909;-49
2023/02/21 10:34:10;;;;;;;;;;;;;;;;;;5037602;28;20674;-48
2023/02/21 10:36:36;;;;;;;;;;;;;;;;;;5037896;28;19915;-51
2023/02/21 10:39:01;;;;;;;;;;;;;;;;;;5037587;28;20369;-51
2023/02/21 10:41:27;;;;;;;;;;;;;;;;;;5037595;28;19909;-48
2023/02/21 10:43:54;;;;;;;;;;;;;;;;;;5037699;28;19913;-50
2023/02/21 10:46:20;;;;;;;;;;;;;;;;;;5037349;28;20357;-51
2023/02/21 10:48:45;;;;;;;;;;;;;;;;;;5037553;28;19928;-52
2023/02/21 10:51:11;;;;;;;;;;;;;;;;;;5037992;28;20315;-48
2023/02/21 10:53:37;;;;;;;;;;;;;;;;;;5037582;28;19905;-51
2023/02/21 10:56:03;;;;;;;;;;;;;;;;;;5052528;28;19910;-50
2023/02/21 10:58:29;;;;;;;;;;;;;;;;;;5037260;28;19906;-45
2023/02/21 11:00:55;;;;;;;;;;;;;;;;;;5052438;28;19940;-52
2023/02/21 11:03:21;;;;;;;;;;;;;;;;;;5051768;28;19928;-51
2023/02/21 11:05:47;;;;;;;;;;;;;;;;;;5057168;28;19956;-51
2023/02/21 11:08:13;;;;;;;;;;;;;;;;;;5057618;28;19909;-48
2023/02/21 11:10:41;;;;;;;;;;;;;;;;;;5057330;28;19932;-52
2023/02/21 11:13:06;;;;;;;;;;;;;;;;;;5057159;28;19967;-50
2023/02/21 11:15:32;;;;;;;;;;;;;;;;;;5057520;28;19913;-51
2023/02/21 11:17:58;;;;;;;;;;;;;;;;;;5057309;28;19955;-48
2023/02/21 11:20:25;;;;;;;;;;;;;;;;;;5057437;28;20004;-48
2023/02/21 11:22:51;;;;;;;;;;;;;;;;;;5058833;28;20265;-49
2023/02/21 11:25:17;;;;;;;;;;;;;;;;;;5060058;28;19958;-48
2023/02/21 11:27:43;;;;;;;;;;;;;;;;;;5060144;28;19916;-51
2023/02/21 11:30:09;;;;;;;;;;;;;;;;;;5060540;28;20276;-50
2023/02/21 11:32:35;;;;;;;;;;;;;;;;;;5060875;28;19998;-49
2023/02/21 11:35:01;;;;;;;;;;;;;;;;;;5060499;28;19909;-52
2023/02/21 11:37:28;;;;;;;;;;;;;;;;;;5060883;28;19909;-52
2023/02/21 11:39:54;;;;;;;;;;;;;;;;;;5060368;28;19951;-48
2023/02/21 11:42:20;;;;;;;;;;;;;;;;;;5060634;28;20284;-49
2023/02/21 11:44:45;;;;;;;;;;;;;;;;;;5060350;28;19909;-52
2023/02/21 11:47:12;;;;;;;;;;;;;;;;;;5060192;28;19963;-49
2023/02/21 11:49:38;;;;;;;;;;;;;;;;;;5060623;28;19947;-49
2023/02/21 11:52:04;;;;;;;;;;;;;;;;;;5060296;28;19908;-48
2023/02/21 11:54:30;;;;;;;;;;;;;;;;;;5060466;28;19908;-53
2023/02/21 11:56:56;;;;;;;;;;;;;;;;;;5060440;28;19986;-52
2023/02/21 11:59:22;;;;;;;;;;;;;;;;;;5060683;28;19909;-48
2023/02/21 12:01:48;;;;;;;;;;;;;;;;;;5060077;28;19909;-51
2023/02/21 12:04:14;;;;;;;;;;;;;;;;;;5058547;28;19924;-52
2023/02/21 12:06:40;;;;;;;;;;;;;;;;;;5060223;28;19956;-48
2023/02/21 12:09:06;;;;;;;;;;;;;;;;;;5060208;28;19909;-51
2023/02/21 12:11:32;;;;;;;;;;;;;;;;;;5059908;28;19909;-48
2023/02/21 12:13:58;;;;;;;;;;;;;;;;;;5057919;28;19909;-49
2023/02/21 12:16:24;;;;;;;;;;;;;;;;;;5059009;28;19924;-51
2023/02/21 12:18:50;;;;;;;;;;;;;;;;;;5059601;28;19909;-51
2023/02/21 12:21:15;;;;;;;;;;;;;;;;;;5059898;28;19913;-52
2023/02/21 12:23:41;;;;;;;;;;;;;;;;;;5059725;28;19920;-53
2023/02/21 12:26:07;;;;;;;;;;;;;;;;;;5059520;28;19960;-49
2023/02/21 12:28:33;;;;;;;;;;;;;;;;;;5059815;28;19963;-51
2023/02/21 12:30:59;;;;;;;;;;;;;;;;;;5059529;28;19919;-50
2023/02/21 12:33:25;;;;;;;;;;;;;;;;;;5059529;28;19908;-51
2023/02/21 12:35:51;;;;;;;;;;;;;;;;;;5059040;28;20007;-52
2023/02/21 12:38:17;;;;;;;;;;;;;;;;;;5059375;28;19916;-50
2023/02/21 12:40:43;;;;;;;;;;;;;;;;;;5059581;28;19909;-51
2023/02/21 12:43:09;;;;;;;;;;;;;;;;;;5059161;28;20380;-48
2023/02/21 12:45:36;;;;;;;;;;;;;;;;;;5059267;28;20027;-47
2023/02/21 12:48:02;;;;;;;;;;;;;;;;;;5059404;28;19912;-48
2023/02/21 12:50:27;;;;;;;;;;;;;;;;;;5059480;28;19909;-51
2023/02/21 12:52:57;;;;;;;;;;;;;;;;;;5058877;28;19915;-49
2023/02/21 12:55:23;;;;;;;;;;;;;;;;;;5057710;28;19948;-47
2023/02/21 12:57:49;;;;;;;;;;;;;;;;;;5057981;28;20376;-49
2023/02/21 13:00:16;;;;;;;;;;;;;;;;;;5058568;28;20257;-49
2023/02/21 13:02:42;;;;;;;;;;;;;;;;;;5058393;28;20372;-48
2023/02/21 13:05:12;;;;;;;;;;;;;;;;;;5059114;28;19967;-52
2023/02/21 13:07:38;;;;;;;;;;;;;;;;;;5058848;28;19909;-51
2023/02/21 13:10:06;;;;;;;;;;;;;;;;;;5040661;28;19977;-49
2023/02/21 13:12:32;;;;;;;;;;;;;;;;;;5058729;28;19916;-49
2023/02/21 13:14:58;;;;;;;;;;;;;;;;;;5058747;28;19909;-50
2023/02/21 13:17:24;;;;;;;;;;;;;;;;;;5058751;28;20283;-47
2023/02/21 13:19:50;;;;;;;;;;;;;;;;;;5057857;28;19962;-52
2023/02/21 13:25:00;;;;;;;;;;;;;;;;;;5058448;28;19954;-53
2023/02/21 13:27:27;;;;;;;;;;;;;;;;;;5058546;28;19905;-53
2023/02/21 13:29:52;;;;;;;;;;;;;;;;;;5058243;28;19996;-52
2023/02/21 13:32:21;;;;;;;;;;;;;;;;;;5058603;28;19948;-52
2023/02/21 13:34:48;;;;;;;;;;;;;;;;;;5058670;28;20394;-54
2023/02/21 13:37:14;;;;;;;;;;;;;;;;;;5058206;28;19905;-54
2023/02/21 13:39:40;;;;;;;;;;;;;;;;;;5058042;28;19909;-52
2023/02/21 13:42:05;;;;;;;;;;;;;;;;;;5058461;28;19904;-53
2023/02/21 13:44:31;;;;;;;;;;;;;;;;;;5058410;28;19909;-52
2023/02/21 13:46:58;;;;;;;;;;;;;;;;;;5039466;28;19959;-49
2023/02/21 13:49:24;;;;;;;;;;;;;;;;;;5057996;28;20371;-52
2023/02/21 13:51:51;;;;;;;;;;;;;;;;;;5058335;28;19991;-54
2023/02/21 13:54:17;;;;;;;;;;;;;;;;;;5057848;28;19909;-54
2023/02/21 13:56:43;;;;;;;;;;;;;;;;;;5058168;28;19916;-53
2023/02/21 13:59:09;;;;;;;;;;;;;;;;;;5058186;28;19909;-52
2023/02/21 14:01:35;;;;;;;;;;;;;;;;;;5058345;28;19908;-55
2023/02/21 14:04:01;;;;;;;;;;;;;;;;;;5057843;28;20012;-52
2023/02/21 14:06:27;;;;;;;;;;;;;;;;;;5058197;28;19952;-51
2023/02/21 14:08:55;;;;;;;;;;;;;;;;;;5058066;28;19909;-52
2023/02/21 14:11:22;;;;;;;;;;;;;;;;;;5057979;28;19962;-51
2023/02/21 14:13:48;;;;;;;;;;;;;;;;;;5057701;28;19944;-50
2023/02/21 14:16:14;;;;;;;;;;;;;;;;;;5057943;28;19916;-53
2023/02/21 14:18:40;;;;;;;;;;;;;;;;;;5058176;28;20326;-53
2023/02/21 14:21:06;;;;;;;;;;;;;;;;;;5057853;28;19909;-54
2023/02/21 14:23:32;;;;;;;;;;;;;;;;;;5057628;28;20280;-51
2023/02/21 14:25:58;;;;;;;;;;;;;;;;;;5057949;28;19909;-48
2023/02/21 14:28:24;;;;;;;;;;;;;;;;;;5057868;28;19909;-51
2023/02/21 14:30:50;;;;;;;;;;;;;;;;;;5057868;28;19909;-47
2023/02/21 14:33:16;;;;;;;;;;;;;;;;;;5057940;28;19909;-52
2023/02/21 14:35:41;;;;;;;;;;;;;;;;;;5057741;28;19916;-51
2023/02/21 14:38:09;;;;;;;;;;;;;;;;;;5057313;28;19913;-52
2023/02/21 14:40:35;;;;;;;;;;;;;;;;;;5057875;28;20261;-53
2023/02/21 14:43:01;;;;;;;;;;;;;;;;;;5057229;28;19920;-49
2023/02/21 14:45:27;;;;;;;;;;;;;;;;;;5057525;28;19920;-51
2023/02/21 14:47:53;;;;;;;;;;;;;;;;;;5058123;28;19908;-52
2023/02/21 14:50:19;;;;;;;;;;;;;;;;;;5057615;28;19909;-48
2023/02/21 14:52:45;;;;;;;;;;;;;;;;;;5057608;28;20007;-50
2023/02/21 14:55:11;;;;;;;;;;;;;;;;;;5057447;28;19909;-54
2023/02/21 14:57:37;;;;;;;;;;;;;;;;;;5058636;28;19912;-51
2023/02/21 15:00:06;;;;;;;;;;;;;;;;;;5061251;28;19909;-54
2023/02/21 15:02:31;;;;;;;;;;;;;;;;;;5043075;28;19921;-51
2023/02/21 15:04:57;;;;;;;;;;;;;;;;;;5061166;28;20043;-47
2023/02/21 15:07:23;;;;;;;;;;;;;;;;;;5061219;28;19909;-52
2023/02/21 15:09:49;;;;;;;;;;;;;;;;;;5060922;28;20327;-53
2023/02/21 15:12:15;;;;;;;;;;;;;;;;;;5061235;28;19963;-53
2023/02/21 15:14:41;;;;;;;;;;;;;;;;;;5061017;28;19909;-51
2023/02/21 15:17:07;;;;;;;;;;;;;;;;;;5061082;28;19951;-48
2023/02/21 15:19:33;;;;;;;;;;;;;;;;;;5061103;28;19999;-49
2023/02/21 15:21:59;;;;;;;;;;;;;;;;;;5061022;28;19917;-52
2023/02/21 15:24:25;;;;;;;;;;;;;;;;;;5060850;28;19958;-49
2023/02/21 15:26:51;;;;;;;;;;;;;;;;;;5061275;28;19940;-49
2023/02/21 15:29:17;;;;;;;;;;;;;;;;;;5060927;28;19920;-51
2023/02/21 15:31:43;;;;;;;;;;;;;;;;;;5060675;28;20337;-48
2023/02/21 15:34:09;;;;;;;;;;;;;;;;;;5060483;28;19909;-49
2023/02/21 15:36:35;;;;;;;;;;;;;;;;;;5060613;28;19995;-51
2023/02/21 15:39:01;;;;;;;;;;;;;;;;;;5060681;28;19915;-48
2023/02/21 15:41:27;;;;;;;;;;;;;;;;;;5060785;28;20003;-50
2023/02/21 15:43:53;;;;;;;;;;;;;;;;;;5060361;28;20309;-48
2023/02/21 15:46:19;;;;;;;;;;;;;;;;;;5060603;28;19932;-51
2023/02/21 15:48:44;;;;;;;;;;;;;;;;;;5060811;28;19909;-51
2023/02/21 15:51:11;;;;;;;;;;;;;;;;;;5060540;28;19908;-50
2023/02/21 15:53:37;;;;;;;;;;;;;;;;;;5060336;28;19909;-51
2023/02/21 15:56:03;;;;;;;;;;;;;;;;;;5060148;28;19940;-51
2023/02/21 15:58:29;;;;;;;;;;;;;;;;;;5060540;28;19909;-52
2023/02/21 16:00:55;;;;;;;;;;;;;;;;;;5060278;28;19912;-50
2023/02/21 16:03:21;;;;;;;;;;;;;;;;;;5059783;28;19925;-51
2023/02/21 16:05:47;;;;;;;;;;;;;;;;;;5059934;28;19913;-52
2023/02/21 16:08:13;;;;;;;;;;;;;;;;;;5060081;28;19955;-54
2023/02/21 16:10:40;;;;;;;;;;;;;;;;;;5059321;28;19908;-51
2023/02/21 16:13:06;;;;;;;;;;;;;;;;;;5059959;28;19908;-51
2023/02/21 16:15:32;;;;;;;;;;;;;;;;;;5059984;28;20321;-50
2023/02/21 16:17:59;;;;;;;;;;;;;;;;;;5059893;28;19909;-52
2023/02/21 16:20:25;;;;;;;;;;;;;;;;;;5059755;28;19951;-48
2023/02/21 16:22:52;;;;;;;;;;;;;;;;;;5059613;28;19912;-50
2023/02/21 16:25:18;;;;;;;;;;;;;;;;;;5059786;28;19909;-52
2023/02/21 16:27:44;;;;;;;;;;;;;;;;;;5060139;28;20352;-47
2023/02/21 16:30:10;;;;;;;;;;;;;;;;;;5059708;28;19909;-47
2023/02/21 16:32:38;;;;;;;;;;;;;;;;;;5059565;28;19948;-52
2023/02/21 16:35:04;;;;;;;;;;;;;;;;;;5059651;28;19997;-48
2023/02/21 16:37:31;;;;;;;;;;;;;;;;;;5059939;28;19908;-52
2023/02/21 16:39:57;;;;;;;;;;;;;;;;;;5059447;28;19917;-53
2023/02/21 16:42:23;;;;;;;;;;;;;;;;;;5059088;28;19922;-53
2023/02/21 16:44:49;;;;;;;;;;;;;;;;;;5059800;28;20003;-48
2023/02/21 16:47:15;;;;;;;;;;;;;;;;;;5059283;28;19940;-55
2023/02/21 16:49:41;;;;;;;;;;;;;;;;;;5059283;28;19909;-48
2023/02/21 16:52:07;;;;;;;;;;;;;;;;;;5059060;28;19936;-49
2023/02/21 16:54:32;;;;;;;;;;;;;;;;;;5059087;28;19909;-47
2023/02/21 16:56:58;;;;;;;;;;;;;;;;;;5059081;28;19909;-49
2023/02/21 16:59:24;;;;;;;;;;;;;;;;;;5059275;28;19982;-49
2023/02/21 17:01:50;;;;;;;;;;;;;;;;;;5058665;28;19909;-48
2023/02/21 17:04:16;;;;;;;;;;;;;;;;;;5059397;28;19913;-52
2023/02/21 17:06:42;;;;;;;;;;;;;;;;;;5058933;28;19958;-50
2023/02/21 17:09:08;;;;;;;;;;;;;;;;;;5059248;28;19915;-50
2023/02/21 17:11:34;;;;;;;;;;;;;;;;;;5059026;28;19915;-48
2023/02/21 17:14:00;;;;;;;;;;;;;;;;;;5058777;28;19908;-50
2023/02/21 17:16:26;;;;;;;;;;;;;;;;;;5058708;28;20408;-52
2023/02/21 17:18:52;;;;;;;;;;;;;;;;;;5059118;28;19909;-49
2023/02/21 17:21:18;;;;;;;;;;;;;;;;;;5058571;28;19909;-50
2023/02/21 17:23:44;;;;;;;;;;;;;;;;;;5058491;28;19912;-47
2023/02/21 17:26:11;;;;;;;;;;;;;;;;;;5058298;28;20333;-47
2023/02/21 17:28:37;;;;;;;;;;;;;;;;;;5058519;28;19908;-49
2023/02/21 17:31:03;;;;;;;;;;;;;;;;;;5058388;28;19909;-48
2023/02/21 17:33:29;;;;;;;;;;;;;;;;;;5058209;28;19931;-49
2023/02/21 17:35:55;;;;;;;;;;;;;;;;;;5058317;28;19909;-49
2023/02/21 17:38:21;;;;;;;;;;;;;;;;;;5058087;28;19912;-53
2023/02/21 17:40:48;;;;;;;;;;;;;;;;;;5058479;28;19958;-49
2023/02/21 17:43:14;;;;;;;;;;;;;;;;;;5058144;28;20010;-52
2023/02/21 17:45:40;;;;;;;;;;;;;;;;;;5058496;28;19912;-50
2023/02/21 17:48:06;;;;;;;;;;;;;;;;;;5058311;28;19909;-52
2023/02/21 17:50:32;;;;;;;;;;;;;;;;;;5058100;28;19908;-49
2023/02/21 17:52:58;;;;;;;;;;;;;;;;;;5058116;28;20327;-50
2023/02/21 17:55:24;;;;;;;;;;;;;;;;;;5058084;28;20378;-53
2023/02/21 17:57:50;;;;;;;;;;;;;;;;;;5057770;28;19937;-53
2023/02/21 18:00:16;;;;;;;;;;;;;;;;;;5057999;28;19916;-50
2023/02/21 18:02:42;;;;;;;;;;;;;;;;;;5057922;28;19921;-47
2023/02/21 18:05:08;;;;;;;;;;;;;;;;;;5058066;28;19908;-47
2023/02/21 18:07:34;;;;;;;;;;;;;;;;;;5058047;28;19909;-50
2023/02/21 18:10:01;;;;;;;;;;;;;;;;;;5057789;28;20269;-50
2023/02/21 18:12:27;;;;;;;;;;;;;;;;;;5058210;28;19909;-48
2023/02/21 18:14:53;;;;;;;;;;;;;;;;;;5057678;28;19916;-48
2023/02/21 18:17:20;;;;;;;;;;;;;;;;;;5057465;28;19909;-52
2023/02/21 18:19:45;;;;;;;;;;;;;;;;;;5057710;28;19909;-50
2023/02/21 18:22:11;;;;;;;;;;;;;;;;;;5039453;28;19909;-49
2023/02/21 18:24:39;;;;;;;;;;;;;;;;;;5057513;28;19912;-50
2023/02/21 18:27:05;;;;;;;;;;;;;;;;;;5057747;28;19908;-49
2023/02/21 18:29:31;;;;;;;;;;;;;;;;;;5057935;28;19916;-49
2023/02/21 18:31:57;;;;;;;;;;;;;;;;;;5059220;28;19913;-53
2023/02/21 18:34:23;;;;;;;;;;;;;;;;;;5064331;28;19916;-48
2023/02/21 18:36:49;;;;;;;;;;;;;;;;;;5064037;28;19913;-47
2023/02/21 18:39:14;;;;;;;;;;;;;;;;;;5064639;28;19909;-48
2023/02/21 18:41:40;;;;;;;;;;;;;;;;;;5064326;28;19912;-48
2023/02/21 18:44:06;;;;;;;;;;;;;;;;;;5064080;28;20312;-52
2023/02/21 18:46:32;;;;;;;;;;;;;;;;;;5064395;28;19909;-49
2023/02/21 18:48:58;;;;;;;;;;;;;;;;;;5064463;28;19999;-49
2023/02/21 18:51:24;;;;;;;;;;;;;;;;;;5064275;28;19912;-51
2023/02/21 18:53:50;;;;;;;;;;;;;;;;;;5064374;28;19915;-49